Terminal Aerodrome Forecast
Issued by NWS

Home | Current Version | Previous Version | Text Only | Print | Product List | Glossary On
Versions: 1 2 3 4 5 6 7 8 9 10 11 12 13 14 15 16 17 18 19 20 21 22 23 24
555
FTUS43 KSGF 231120
TAFJLN
TAF
KJLN 231120Z 2312/2412 15010KT P6SM SCT100 BKN200
     FM231500 18012KT P6SM VCSH BKN100 OVC200
     FM240000 16009KT P6SM BKN100
     FM240600 17008KT P6SM VCSH BKN080 OVC200 WS020/19035KT=

USA.gov is the U.S. government's official web portal to all federal, state and local government web resources and services.